• Join FlightAware (Why Join?)
  • Login
  • US Flag 
01:06PM EST


 

Airport Tracker/Info


-or-


 

Live Flight TrackerFlight Track Log ✈ AWE1940 ✈ 14-May-2013 ✈ KCLT - KALB

Flight Track Log - Related Links

Times and Time Zones

All times are in EDT time to prevent confusion due to time zone crossing. See the AWE1940 flight status page for this flight to view local times or setup timezone preferences in your user account.

Time Position Orientation Groundspeed Altitude Reporting Facility
EDT Latitude Longitude Course Direction KTS MPH feet Rate Location/Type
10:17PM 35.1928 -80.9356 72° East 161 185 1,800  Level Atlanta Center
10:19PM 35.1292 -80.8872 148° Southeast 267 307 4,900 2,400 Climbing Atlanta Center
10:20PM 35.1172 -80.6219 29° Northeast  Level FlightAware Approximate
10:20PM 35.1744 -80.7839 62° Northeast 309 356 8,400  Level Atlanta Center
10:21PM 35.2154 -80.5557 30° Northeast  Level FlightAware Approximate
10:21PM 35.2094 -80.6936 65° Northeast 310 357 11,300  Level Atlanta Center
10:22PM 35.3122 -80.4865 30° Northeast  Level FlightAware Approximate
10:22PM 35.2525 -80.5900 63° Northeast 321 369 13,700  Level Atlanta Center
10:23PM 35.3569 -80.3773 72° East  Level FlightAware Approximate
10:23PM 35.2914 -80.4917 64° Northeast 342 394 16,100  Level Atlanta Center
10:24PM 35.3381 -80.3778 63° Northeast 357 411 18,400 2,220 Climbing Atlanta Center
10:26PM 35.4308 -80.1472 64° Northeast 391 450 22,400 2,100 Climbing Washington Center
10:27PM 35.4694 -80.0092 71° East 405 466 24,500 1,980 Climbing Washington Center
10:28PM 35.5061 -79.8633 73° East 424 488 26,500 1,200 Climbing Washington Center
10:29PM 35.5403 -79.7169 74° East 435 501 27,000 300 Climbing Washington Center
10:30PM 35.5856 -79.5533 71° East 453 521 27,200 720 Climbing Washington Center
10:31PM 35.6167 -79.4297 73° East 460 529 28,500 1,560 Climbing Washington Center
10:32PM 35.6758 -79.2792 64° Northeast 454 522 30,400 1,860 Climbing Washington Center
10:33PM 35.7342 -79.1411 62° Northeast 454 522 32,200 1,260 Climbing Washington Center
10:34PM 35.7986 -79.0083 59° Northeast 449 517 33,000 360 Climbing Washington Center
10:35PM 35.8628 -78.8725 60° Northeast 449 517 33,000  Level Washington Center
10:36PM 35.9247 -78.7392 60° Northeast 449 517 33,000  Level Washington Center
10:37PM 35.9889 -78.6031 60° Northeast 449 517 33,000  Level Washington Center
10:38PM 36.0525 -78.4719 59° Northeast 449 517 33,000  Level Washington Center
10:39PM 36.1119 -78.3378 61° Northeast 449 517 33,000  Level Washington Center
10:40PM 36.1778 -78.2011 59° Northeast 449 517 33,000  Level Washington Center
10:41PM 36.2389 -78.0694 60° Northeast 449 517 33,000  Level Washington Center
10:42PM 36.2981 -77.9372 61° Northeast 449 517 33,000  Level Washington Center
10:43PM 36.3611 -77.7997 60° Northeast 449 517 33,000  Level Washington Center
10:44PM 36.4306 -77.6519 60° Northeast 449 517 33,000  Level Washington Center
10:45PM 36.4825 -77.5269 63° Northeast 449 517 33,000  Level Washington Center
10:46PM 36.5431 -77.3939 60° Northeast 449 517 33,000  Level Washington Center
10:47PM 36.6056 -77.2583 60° Northeast 449 517 33,000  Level Washington Center
10:48PM 36.6636 -77.1222 62° Northeast 449 517 33,000  Level Washington Center
10:49PM 36.7300 -76.9967 57° Northeast 444 511 33,000  Level Washington Center
10:50PM 36.8206 -76.9153 36° Northeast 414 476 33,000  Level Washington Center
10:51PM 36.9258 -76.8233 35° Northeast 408 470 33,000  Level Washington Center
10:52PM 37.0183 -76.7392 36° Northeast 408 470 33,000  Level Washington Center
10:53PM 37.1111 -76.6519 37° Northeast 408 470 33,000  Level Washington Center
10:54PM 37.2036 -76.5669 36° Northeast 408 470 33,000  Level Washington Center
10:55PM 37.2961 -76.4822 36° Northeast 408 470 33,000  Level Washington Center
10:56PM 37.3883 -76.3994 35° Northeast 408 470 33,000  Level Washington Center
10:57PM 37.4828 -76.3142 36° Northeast 408 470 33,000  Level Washington Center
10:58PM 37.5750 -76.2311 36° Northeast 408 470 33,000  Level Washington Center
10:59PM 37.6672 -76.1481 35° Northeast 408 470 33,000  Level Washington Center
11:00PM 37.7592 -76.0647 36° Northeast 408 470 33,000  Level Washington Center
11:01PM 37.8450 -75.9967 32° Northeast 408 470 33,000  Level Washington Center
11:02PM 37.9411 -75.9261 30° Northeast 402 463 33,000  Level Washington Center
11:03PM 38.0394 -75.8581 29° Northeast 397 457 33,000  Level Washington Center
11:04PM 38.1397 -75.7925 27° Northeast 397 457 33,000  Level Washington Center
11:05PM 38.2356 -75.7239 29° Northeast 397 457 33,000  Level Washington Center
11:06PM 38.3483 -75.6500 27° Northeast 397 457 33,000  Level Washington Center
11:07PM 38.4464 -75.5836 28° Northeast 397 457 33,000  Level Washington Center
11:08PM 38.5422 -75.5147 29° Northeast 397 457 33,000  Level Washington Center
11:09PM 38.6381 -75.4456 29° Northeast 397 457 33,000  Level Washington Center
11:10PM 38.7358 -75.3761 29° Northeast 397 457 33,000  Level Washington Center
11:11PM 38.8336 -75.3064 29° Northeast 397 457 33,000  Level Washington Center
11:12PM 38.9294 -75.2367 30° Northeast 397 457 33,000  Level Washington Center
11:13PM 39.0250 -75.1694 29° Northeast 397 457 33,000  Level Washington Center
11:14PM 39.1206 -75.1019 29° Northeast 397 457 33,000  Level Washington Center
11:15PM 39.2161 -75.0292 31° Northeast 392 451 33,000  Level Washington Center
11:16PM 39.3097 -74.9639 28° Northeast 392 451 33,000  Level Washington Center
11:17PM 39.3969 -74.9014 29° Northeast 397 457 33,000  Level Washington Center
11:19PM 39.5575 -74.7856 29° Northeast 396 456 33,000  Level New York Center
11:20PM 39.6536 -74.7183 28° Northeast 391 450 33,000  Level New York Center
11:21PM 39.7478 -74.6453 31° Northeast 391 450 33,000  Level New York Center
11:22PM 39.8417 -74.5803 28° Northeast 391 450 33,000  Level New York Center
11:24PM 40.0248 -74.4814 10° North  Level FlightAware Approximate
11:29PM 40.5756 -74.3308 North 367 422 33,000  Level Boston Center
11:30PM 40.6761 -74.3064 10° North 373 429 33,000  Level Boston Center
11:31PM 40.7589 -74.3049 North  Level FlightAware Approximate
11:31PM 40.7847 -74.2850 North 368 423 33,000  Level Boston Center
11:32PM 40.8632 -74.2793 11° North  Level FlightAware Approximate
11:32PM 40.8872 -74.2603 10° North 368 423 33,000  Level Boston Center
11:33PM 40.9675 -74.2537 11° North  Level FlightAware Approximate
11:33PM 40.9750 -74.2408 North 368 423 33,000  Level Boston Center
11:34PM 41.0722 -74.2289 North  Level FlightAware Approximate
11:34PM 41.0775 -74.2161 10° North 368 423 33,000  Level Boston Center
11:35PM 41.1758 -74.1939 10° North 368 423 32,200 -900 Descending Boston Center
11:36PM 41.2847 -74.1611 13° North 368 423 31,200 -2,100 Descending Boston Center
11:37PM 41.3853 -74.1389 North 363 418 28,100 -2,640 Descending Boston Center
11:38PM 41.4856 -74.1139 11° North 363 418 26,000 -1,260 Descending Boston Center
11:39PM 41.5817 -74.0914 10° North 368 423 25,600 -2,100 Descending Boston Center
11:40PM 41.6781 -74.0689 10° North 368 423 21,800 -3,900 Descending Boston Center
11:41PM 41.7806 -74.0436 10° North 355 409 17,800 -3,720 Descending Boston Center
11:42PM 41.8767 -74.0211 10° North 353 406 14,600 -3,420 Descending Boston Center
11:43PM 41.9353 -74.0086 North 355 409 12,500 -3,240 Descending Boston Center
11:43PM 41.9728 -73.9956 15° North 353 406 11,200 -1,500 Descending Boston Center
11:44PM 42.0292 -73.9858 North 352 405 11,000 -240 Descending Boston Center
11:44PM 42.0669 -73.9728 14° North 353 406 11,000  Level Boston Center
11:45PM 42.1172 -73.9628 North 315 362 11,000  Level Boston Center
11:45PM 42.1486 -73.9522 14° North 316 364 11,000 -720 Level Boston Center
11:46PM 42.1944 -73.9422 North 271 312 10,300 -1,680 Descending Boston Center
11:47PM 42.2719 -73.9244 10° North 279 321 8,700 -1,620 Descending Boston Center
11:48PM 42.3450 -73.9036 12° North 268 308 7,100 -1,740 Descending Boston Center
11:49PM 42.4164 -73.8800 14° North 264 304 5,200 -1,800 Descending Boston Center
11:50PM 42.4936 -73.8536 14° North 264 304 3,500 -1,200 Descending Boston Center
11:51PM 42.5522 -73.8353 13° North 256 295 3,000 -480 Descending Boston Center
11:52PM 42.6089 -73.8194 12° North 188 216 2,600 -420 Descending Boston Center